createdAt,value
2023-03-01T00:01:37.375Z,99.90
2023-03-01T00:04:05.470Z,99.90
2023-03-01T00:06:53.737Z,99.90
2023-03-01T00:09:21.893Z,99.90
2023-03-01T00:11:51.061Z,99.90
2023-03-01T00:14:19.433Z,99.90
2023-03-01T00:16:48.253Z,99.90
2023-03-01T00:19:19.038Z,99.90
2023-03-01T00:21:48.136Z,99.90
2023-03-01T00:24:17.750Z,99.90
2023-03-01T00:26:47.460Z,99.90
2023-03-01T00:29:15.621Z,99.90
2023-03-01T00:31:43.725Z,99.90
2023-03-01T00:34:11.926Z,99.90
2023-03-01T00:36:40.532Z,99.90
2023-03-01T00:39:13.606Z,99.90
2023-03-01T00:41:44.055Z,99.90
2023-03-01T00:44:12.657Z,99.90
2023-03-01T00:46:41.250Z,99.90
2023-03-01T00:49:10.048Z,99.90
2023-03-01T00:51:38.173Z,99.90
2023-03-01T00:54:06.482Z,99.90
2023-03-01T00:56:34.847Z,99.90
2023-03-01T00:59:04.576Z,99.90
2023-03-01T01:01:33.417Z,99.90
2023-03-01T01:04:04.679Z,99.90
2023-03-01T01:06:35.161Z,99.90
2023-03-01T01:09:04.794Z,99.90
2023-03-01T01:11:33.748Z,99.90
2023-03-01T01:14:01.904Z,99.90
2023-03-01T01:16:32.779Z,99.90
2023-03-01T01:19:01.522Z,99.90
2023-03-01T01:21:30.131Z,99.90
2023-03-01T01:23:59.099Z,99.90
2023-03-01T01:26:29.813Z,99.90
2023-03-01T01:28:58.203Z,99.90
2023-03-01T01:31:27.353Z,99.90
2023-03-01T01:33:57.486Z,99.90
2023-03-01T01:36:25.941Z,99.90
2023-03-01T01:38:54.185Z,99.90
2023-03-01T01:41:23.300Z,99.90
2023-03-01T01:44:14.026Z,99.90
2023-03-01T01:46:44.072Z,99.90
2023-03-01T01:49:26.622Z,99.90
2023-03-01T01:52:02.060Z,99.90
2023-03-01T01:54:33.462Z,99.90
2023-03-01T01:57:05.495Z,99.90
2023-03-01T01:59:35.634Z,99.90
2023-03-01T02:02:06.232Z,99.90
2023-03-01T02:04:35.946Z,99.90
2023-03-01T02:07:08.793Z,99.90
2023-03-01T02:09:37.668Z,99.90
2023-03-01T02:12:07.869Z,99.90
2023-03-01T02:14:36.371Z,99.90
2023-03-01T02:17:05.329Z,99.90
2023-03-01T02:19:51.536Z,99.90
2023-03-01T02:22:24.885Z,99.90
2023-03-01T02:25:07.541Z,99.90
2023-03-01T02:27:43.285Z,99.90
2023-03-01T02:30:14.271Z,99.90
2023-03-01T02:32:43.641Z,99.90
2023-03-01T02:35:14.606Z,99.90
2023-03-01T02:37:44.651Z,99.90
2023-03-01T02:40:17.760Z,99.90
2023-03-01T02:42:51.832Z,99.90
2023-03-01T02:45:21.317Z,99.90
2023-03-01T02:47:49.468Z,99.90
2023-03-01T02:50:37.931Z,99.90
2023-03-01T02:53:12.221Z,99.90
2023-03-01T02:55:40.651Z,99.90
2023-03-01T02:58:09.355Z,99.90
2023-03-01T03:00:47.837Z,99.90
2023-03-01T03:03:18.627Z,99.90
2023-03-01T03:05:46.945Z,99.90
2023-03-01T03:08:17.352Z,99.90
2023-03-01T03:10:45.485Z,99.90
2023-03-01T03:13:16.017Z,99.90
2023-03-01T03:15:46.695Z,99.90
2023-03-01T03:18:16.954Z,99.90
2023-03-01T03:20:46.588Z,99.90
2023-03-01T03:23:15.131Z,99.90
2023-03-01T03:25:43.282Z,99.90
2023-03-01T03:28:11.510Z,99.90
2023-03-01T03:30:42.196Z,99.90
2023-03-01T03:33:13.662Z,99.90
2023-03-01T03:35:44.582Z,99.90
2023-03-01T03:38:17.768Z,99.90
2023-03-01T03:40:48.959Z,99.90
2023-03-01T03:43:18.649Z,99.90
2023-03-01T03:45:47.336Z,99.90
2023-03-01T03:48:18.270Z,99.90
2023-03-01T03:50:50.762Z,99.90
2023-03-01T03:53:19.541Z,99.90
2023-03-01T03:55:50.159Z,99.90
2023-03-01T03:58:20.906Z,99.90
2023-03-01T04:00:51.146Z,99.90
2023-03-01T04:03:22.228Z,99.90
2023-03-01T04:05:51.498Z,99.90
2023-03-01T04:08:21.596Z,99.90
2023-03-01T04:10:52.282Z,99.90
2023-03-01T04:13:22.166Z,99.90
2023-03-01T04:15:51.590Z,99.90
2023-03-01T04:18:23.697Z,99.90
2023-03-01T04:20:53.114Z,99.90
2023-03-01T04:23:22.397Z,99.90
2023-03-01T04:25:55.009Z,99.90
2023-03-01T04:28:25.463Z,99.90
2023-03-01T04:30:54.127Z,99.90
2023-03-01T04:33:24.288Z,99.90
2023-03-01T04:35:52.467Z,99.90
2023-03-01T04:38:22.257Z,99.90
2023-03-01T04:40:50.842Z,99.90
2023-03-01T04:43:19.106Z,99.90
2023-03-01T04:45:47.378Z,99.90
2023-03-01T04:48:15.819Z,99.90
2023-03-01T04:50:45.263Z,99.90
2023-03-01T04:53:13.633Z,99.90
2023-03-01T04:55:41.918Z,99.90
2023-03-01T04:58:10.102Z,99.90
2023-03-01T05:00:38.227Z,99.90
2023-03-01T05:03:06.607Z,99.90
2023-03-01T05:05:37.150Z,99.90
2023-03-01T05:08:09.136Z,99.90
2023-03-01T05:10:39.713Z,99.90
2023-03-01T05:13:08.336Z,99.90
2023-03-01T05:15:37.541Z,99.90
2023-03-01T05:18:08.141Z,99.90
2023-03-01T05:20:37.438Z,99.90
2023-03-01T05:23:07.812Z,99.90
2023-03-01T05:25:41.009Z,99.90
2023-03-01T05:28:14.070Z,99.90
2023-03-01T05:30:42.921Z,99.90
2023-03-01T05:33:14.725Z,99.90
2023-03-01T05:35:43.646Z,99.90
2023-03-01T05:38:14.425Z,99.90
2023-03-01T05:40:43.437Z,99.90
2023-03-01T05:43:12.458Z,99.90
2023-03-01T05:45:41.772Z,99.90
2023-03-01T05:48:12.200Z,99.90
2023-03-01T05:50:43.221Z,99.90
2023-03-01T05:53:14.971Z,99.90
2023-03-01T05:55:43.960Z,99.90
2023-03-01T05:58:15.110Z,99.90
2023-03-01T06:00:44.199Z,99.90
2023-03-01T06:03:13.560Z,99.90
2023-03-01T06:05:42.524Z,99.90
2023-03-01T06:08:14.494Z,99.90
2023-03-01T06:10:43.441Z,99.90
2023-03-01T06:13:11.561Z,99.90
2023-03-01T06:15:39.893Z,99.90
2023-03-01T06:18:08.203Z,99.90
2023-03-01T06:20:36.524Z,99.90
2023-03-01T06:23:05.119Z,99.90
2023-03-01T06:25:34.818Z,99.90
2023-03-01T06:28:02.902Z,99.90
2023-03-01T06:30:31.111Z,99.90
2023-03-01T06:33:02.493Z,99.90
2023-03-01T06:35:32.097Z,99.90
2023-03-01T06:38:01.171Z,99.90
2023-03-01T06:40:30.115Z,99.90
2023-03-01T06:43:00.248Z,99.90
2023-03-01T06:45:28.622Z,99.90
2023-03-01T06:48:04.725Z,99.90
2023-03-01T06:50:33.253Z,99.90
2023-03-01T06:53:01.687Z,99.90
2023-03-01T06:55:30.534Z,99.90
2023-03-01T06:58:01.015Z,99.90
2023-03-01T07:00:30.264Z,99.90
2023-03-01T07:03:03.035Z,99.90
2023-03-01T07:05:31.781Z,99.90
2023-03-01T07:07:59.918Z,99.90
2023-03-01T07:10:28.425Z,99.90
2023-03-01T07:13:00.889Z,99.90
2023-03-01T07:15:31.133Z,99.90
2023-03-01T07:17:59.452Z,99.90
2023-03-01T07:20:27.701Z,99.90
2023-03-01T07:22:57.597Z,99.90
2023-03-01T07:25:25.922Z,99.90
2023-03-01T07:27:54.938Z,99.90
2023-03-01T07:30:27.035Z,99.90
2023-03-01T07:32:55.974Z,99.90
2023-03-01T07:35:24.895Z,99.90
2023-03-01T07:37:53.528Z,99.90
2023-03-01T07:40:22.061Z,99.90
2023-03-01T07:42:50.193Z,99.90
2023-03-01T07:45:18.352Z,99.90
2023-03-01T07:47:47.933Z,99.90
2023-03-01T07:50:16.455Z,99.90
2023-03-01T07:52:46.919Z,99.90
2023-03-01T07:55:15.648Z,99.90
2023-03-01T07:57:43.844Z,99.90
2023-03-01T08:00:14.317Z,99.90
2023-03-01T08:02:43.127Z,99.90
2023-03-01T08:05:12.741Z,99.90
2023-03-01T08:07:41.301Z,99.90
2023-03-01T08:10:10.523Z,99.90
2023-03-01T08:12:42.447Z,99.90
2023-03-01T08:15:12.297Z,99.50
2023-03-01T08:17:40.500Z,98.30
2023-03-01T08:20:13.669Z,97.10
2023-03-01T08:22:43.314Z,96.10
2023-03-01T08:25:11.720Z,93.60
2023-03-01T08:27:40.116Z,90.80
2023-03-01T08:30:10.102Z,85.50
2023-03-01T08:32:39.952Z,82.80
2023-03-01T08:35:09.080Z,80.10
2023-03-01T08:37:37.237Z,75.00
2023-03-01T08:40:11.115Z,70.90
2023-03-01T08:42:39.357Z,66.80
2023-03-01T08:45:08.392Z,65.00
2023-03-01T08:47:36.962Z,61.90
2023-03-01T08:50:06.141Z,59.10
2023-03-01T08:52:35.020Z,57.90
2023-03-01T08:55:03.667Z,56.60
2023-03-01T09:00:36.578Z,54.90
2023-03-01T09:03:05.386Z,52.30
2023-03-01T09:05:33.959Z,50.70
2023-03-01T09:08:02.592Z,47.20
2023-03-01T09:10:30.684Z,44.00
2023-03-01T09:12:58.786Z,40.20
2023-03-01T09:15:27.791Z,38.40
2023-03-01T09:17:57.288Z,35.70
2023-03-01T09:20:25.524Z,34.80
2023-03-01T09:22:54.017Z,33.50
2023-03-01T09:25:22.046Z,32.50
2023-03-01T09:27:50.214Z,31.00
2023-03-01T09:30:19.072Z,30.00
2023-03-01T09:32:47.434Z,29.30
2023-03-01T09:35:17.060Z,29.10
2023-03-01T09:37:46.286Z,27.90
2023-03-01T09:40:18.199Z,27.90
2023-03-01T09:42:55.886Z,27.20
2023-03-01T09:45:30.875Z,27.00
2023-03-01T09:48:00.007Z,26.50
2023-03-01T09:50:33.808Z,26.00
2023-03-01T09:53:04.647Z,25.80
2023-03-01T09:55:39.333Z,25.80
2023-03-01T09:58:38.190Z,25.20
2023-03-01T10:01:25.823Z,24.30
2023-03-01T10:04:06.831Z,23.90
2023-03-01T10:06:36.464Z,23.20
2023-03-01T10:09:10.553Z,22.60
2023-03-01T10:11:46.058Z,22.30
2023-03-01T10:14:24.456Z,22.10
2023-03-01T10:16:59.883Z,21.50
2023-03-01T10:19:34.520Z,21.40
2023-03-01T10:22:11.579Z,21.30
2023-03-01T10:24:40.062Z,21.20
2023-03-01T10:27:14.859Z,21.20
2023-03-01T10:29:51.138Z,21.70
2023-03-01T10:32:20.497Z,21.70
2023-03-01T10:34:49.258Z,21.30
2023-03-01T10:37:22.665Z,21.00
2023-03-01T10:39:58.056Z,21.20
2023-03-01T10:42:31.077Z,21.00
2023-03-01T10:44:59.467Z,21.10
2023-03-01T10:47:29.343Z,21.10
2023-03-01T10:50:02.934Z,20.90
2023-03-01T10:52:38.009Z,20.90
2023-03-01T10:55:26.855Z,21.00
2023-03-01T10:58:09.997Z,20.90
2023-03-01T11:00:49.686Z,20.80
2023-03-01T11:03:23.084Z,21.00
2023-03-01T11:06:03.565Z,20.90
2023-03-01T11:08:36.037Z,20.80
2023-03-01T11:11:15.364Z,21.10
2023-03-01T11:13:53.362Z,21.50
2023-03-01T11:16:31.907Z,21.60
2023-03-01T11:19:16.949Z,21.60
2023-03-01T11:21:55.756Z,22.10
2023-03-01T11:24:32.392Z,22.50
2023-03-01T11:27:04.715Z,23.10
2023-03-01T11:29:47.689Z,23.40
2023-03-01T11:32:17.756Z,23.80
2023-03-01T11:34:50.249Z,23.80
2023-03-01T11:37:26.622Z,24.50
2023-03-01T11:40:05.724Z,24.30
2023-03-01T11:42:46.430Z,24.50
2023-03-01T11:45:15.289Z,24.60
2023-03-01T11:48:06.025Z,24.80
2023-03-01T11:50:41.837Z,25.20
2023-03-01T11:53:46.496Z,25.20
2023-03-01T11:56:27.957Z,25.10
2023-03-01T11:59:26.860Z,25.00
2023-03-01T12:02:21.932Z,24.70
2023-03-01T12:05:19.960Z,24.30
2023-03-01T12:07:55.499Z,24.30
2023-03-01T12:10:28.488Z,25.10
2023-03-01T12:13:39.611Z,25.20
2023-03-01T12:16:36.274Z,24.70
2023-03-01T12:19:41.712Z,24.60
2023-03-01T12:22:22.612Z,24.30
2023-03-01T12:25:20.827Z,24.40
2023-03-01T12:28:12.812Z,23.70
2023-03-01T12:30:53.386Z,23.80
2023-03-01T12:33:27.685Z,24.40
2023-03-01T12:36:18.756Z,23.80
2023-03-01T12:38:52.532Z,23.70
2023-03-01T12:41:38.046Z,23.70
2023-03-01T12:44:26.511Z,23.90
2023-03-01T12:47:12.708Z,23.50
2023-03-01T12:49:45.207Z,23.70
2023-03-01T12:52:18.910Z,23.50
2023-03-01T12:54:48.314Z,23.00
2023-03-01T12:57:23.342Z,22.90
2023-03-01T13:00:09.388Z,22.90
2023-03-01T13:02:47.846Z,23.20
2023-03-01T13:05:31.482Z,22.90
2023-03-01T13:08:07.562Z,22.70
2023-03-01T13:10:41.805Z,22.90
2023-03-01T13:13:22.003Z,23.40
2023-03-01T13:15:52.155Z,24.00
2023-03-01T13:18:33.241Z,24.60
2023-03-01T13:21:06.621Z,24.50
2023-03-01T13:23:37.909Z,24.30
2023-03-01T13:26:15.950Z,24.30
2023-03-01T13:28:58.159Z,24.30
2023-03-01T13:32:02.745Z,23.90
2023-03-01T13:34:49.804Z,24.30
2023-03-01T13:37:33.808Z,24.70
2023-03-01T13:40:06.548Z,25.00
2023-03-01T13:42:41.995Z,25.80
2023-03-01T13:45:22.773Z,26.40
2023-03-01T13:47:59.600Z,26.60
2023-03-01T13:50:33.684Z,26.80
2023-03-01T13:53:03.997Z,26.90
2023-03-01T13:55:39.637Z,26.90
2023-03-01T13:58:20.864Z,26.80
2023-03-01T14:00:49.183Z,27.10
2023-03-01T14:03:19.174Z,28.10
2023-03-01T14:06:13.004Z,29.30
2023-03-01T14:08:42.462Z,30.20
2023-03-01T14:11:37.500Z,31.60
2023-03-01T14:14:56.760Z,33.40
2023-03-01T14:17:47.103Z,35.20
2023-03-01T14:20:20.378Z,35.50
2023-03-01T14:22:54.287Z,36.90
2023-03-01T14:25:26.806Z,37.70
2023-03-01T14:28:06.300Z,38.40
2023-03-01T14:30:38.494Z,38.40
2023-03-01T14:33:08.974Z,38.80
2023-03-01T14:35:38.491Z,39.40
2023-03-01T14:38:07.872Z,39.80
2023-03-01T14:40:38.275Z,39.80
2023-03-01T14:43:13.077Z,40.00
2023-03-01T14:45:41.568Z,40.60
2023-03-01T14:48:09.977Z,41.30
2023-03-01T14:50:43.406Z,41.50
2023-03-01T14:53:19.949Z,41.20
2023-03-01T14:55:52.609Z,41.60
2023-03-01T14:58:23.913Z,41.70
2023-03-01T15:00:54.760Z,42.50
2023-03-01T15:03:29.782Z,43.20
2023-03-01T15:05:58.493Z,43.80
2023-03-01T15:08:34.105Z,44.70
2023-03-01T15:11:08.625Z,45.20
2023-03-01T15:13:38.070Z,46.80
2023-03-01T15:16:09.987Z,47.50
2023-03-01T15:18:39.148Z,47.80
2023-03-01T15:21:12.247Z,48.40
2023-03-01T15:23:42.324Z,48.90
2023-03-01T15:26:25.227Z,49.80
2023-03-01T15:28:55.857Z,50.60
2023-03-01T15:31:26.048Z,51.50
2023-03-01T15:33:54.739Z,53.20
2023-03-01T15:36:38.329Z,53.60
2023-03-01T15:39:28.272Z,54.70
2023-03-01T15:41:56.596Z,54.80
2023-03-01T15:44:34.990Z,55.30
2023-03-01T15:47:26.712Z,55.50
2023-03-01T15:49:56.318Z,55.80
2023-03-01T15:52:30.099Z,56.60
2023-03-01T15:55:05.663Z,56.80
2023-03-01T15:57:33.841Z,56.70
2023-03-01T16:00:01.981Z,57.30
2023-03-01T16:02:33.098Z,57.70
2023-03-01T16:05:01.231Z,58.20
2023-03-01T16:07:29.274Z,58.70
2023-03-01T16:09:57.806Z,60.20
2023-03-01T16:12:27.188Z,60.00
2023-03-01T16:14:55.410Z,60.40
2023-03-01T16:17:23.645Z,60.80
2023-03-01T16:19:51.768Z,61.90
2023-03-01T16:22:26.100Z,63.40
2023-03-01T16:24:54.466Z,65.30
2023-03-01T16:27:22.532Z,65.80
2023-03-01T16:29:53.526Z,66.00
2023-03-01T16:32:21.707Z,66.80
2023-03-01T16:34:50.377Z,68.10
2023-03-01T16:37:20.422Z,68.60
2023-03-01T16:39:49.810Z,69.60
2023-03-01T16:42:18.706Z,70.20
2023-03-01T16:44:46.946Z,72.10
2023-03-01T16:47:16.328Z,73.70
2023-03-01T16:49:44.432Z,76.30
2023-03-01T16:52:12.906Z,78.10
2023-03-01T16:54:41.554Z,79.90
2023-03-01T16:57:09.859Z,82.10
2023-03-01T16:59:38.455Z,83.40
2023-03-01T17:02:09.070Z,84.20
2023-03-01T17:04:39.202Z,85.60
2023-03-01T17:07:07.334Z,89.60
2023-03-01T17:09:37.633Z,91.60
2023-03-01T17:12:06.487Z,91.90
2023-03-01T17:14:35.863Z,92.70
2023-03-01T17:17:04.553Z,93.40
2023-03-01T17:19:33.070Z,94.70
2023-03-01T17:22:02.476Z,95.60
2023-03-01T17:24:34.250Z,97.40
2023-03-01T17:27:02.364Z,98.30
2023-03-01T17:29:30.475Z,98.80
2023-03-01T17:31:59.670Z,99.40
2023-03-01T17:34:28.348Z,99.90
2023-03-01T17:36:56.577Z,99.90
2023-03-01T17:39:32.268Z,99.90
2023-03-01T17:42:00.871Z,99.90
2023-03-01T17:44:28.906Z,99.90
2023-03-01T17:46:57.342Z,99.90
2023-03-01T17:49:25.453Z,99.90
2023-03-01T17:51:53.454Z,99.90
2023-03-01T17:54:21.946Z,99.90
2023-03-01T17:56:51.582Z,99.90
2023-03-01T17:59:19.677Z,99.90
2023-03-01T18:01:48.461Z,99.90
2023-03-01T18:04:18.371Z,99.90
2023-03-01T18:06:46.713Z,99.90
2023-03-01T18:09:15.352Z,99.90
2023-03-01T18:11:46.189Z,99.90
2023-03-01T18:14:16.755Z,99.90
2023-03-01T18:16:44.833Z,99.90
2023-03-01T18:19:13.597Z,99.90
2023-03-01T18:21:41.999Z,99.90
2023-03-01T18:24:10.170Z,99.90
2023-03-01T18:26:40.182Z,99.90
2023-03-01T18:29:08.513Z,99.90
2023-03-01T18:31:37.897Z,99.90
2023-03-01T18:34:06.130Z,99.90
2023-03-01T18:36:36.952Z,99.90
2023-03-01T18:39:07.894Z,99.90
2023-03-01T18:41:36.957Z,99.90
2023-03-01T18:44:06.914Z,99.90
2023-03-01T18:46:37.915Z,99.90
2023-03-01T18:49:08.106Z,99.90
2023-03-01T18:51:36.178Z,99.90
2023-03-01T18:54:05.278Z,99.90
2023-03-01T18:56:35.389Z,99.90
2023-03-01T18:59:04.044Z,99.90
2023-03-01T19:01:36.671Z,99.90
2023-03-01T19:04:09.214Z,99.90
2023-03-01T19:06:38.177Z,99.90
2023-03-01T19:09:07.659Z,99.90
2023-03-01T19:11:36.326Z,99.90
2023-03-01T19:14:05.644Z,99.90
2023-03-01T19:16:36.012Z,99.90
2023-03-01T19:19:08.613Z,99.90
2023-03-01T19:21:36.854Z,99.90
2023-03-01T19:24:05.414Z,99.90
2023-03-01T19:26:34.654Z,99.90
2023-03-01T19:29:03.753Z,99.90
2023-03-01T19:31:32.368Z,99.90
2023-03-01T19:34:11.934Z,99.90
2023-03-01T19:36:43.058Z,99.90
2023-03-01T19:39:14.151Z,99.90
2023-03-01T19:41:42.843Z,99.90
2023-03-01T19:44:11.506Z,99.90
2023-03-01T19:46:40.105Z,99.90
2023-03-01T19:49:08.242Z,99.90
2023-03-01T19:51:38.882Z,99.90
2023-03-01T19:54:09.902Z,99.90
2023-03-01T19:56:38.388Z,99.90
2023-03-01T19:59:06.849Z,99.90
2023-03-01T20:01:37.617Z,99.90
2023-03-01T20:04:06.468Z,99.90
2023-03-01T20:06:34.855Z,99.90
2023-03-01T20:09:12.329Z,99.90
2023-03-01T20:11:48.883Z,99.90
2023-03-01T20:14:17.154Z,99.90
2023-03-01T20:16:45.251Z,99.90
2023-03-01T20:19:13.315Z,99.90
2023-03-01T20:21:41.426Z,99.90
2023-03-01T20:24:09.785Z,99.90
2023-03-01T20:26:38.206Z,99.90
2023-03-01T20:29:09.047Z,99.90
2023-03-01T20:31:37.577Z,99.90
2023-03-01T20:34:05.637Z,99.90
2023-03-01T20:36:35.094Z,99.90
2023-03-01T20:39:03.256Z,99.90
2023-03-01T20:41:31.503Z,99.90
2023-03-01T20:44:00.480Z,99.90
2023-03-01T20:46:32.499Z,99.90
2023-03-01T20:49:01.431Z,99.90
2023-03-01T20:51:29.695Z,99.90
2023-03-01T20:53:58.080Z,99.90
2023-03-01T20:56:27.541Z,99.90
2023-03-01T20:59:05.373Z,99.90
2023-03-01T21:01:35.278Z,99.90
2023-03-01T21:04:03.413Z,99.90
2023-03-01T21:06:32.227Z,99.90
2023-03-01T21:09:00.641Z,99.90
2023-03-01T21:11:28.708Z,99.90
2023-03-01T21:13:56.948Z,99.90
2023-03-01T21:16:26.071Z,99.90
2023-03-01T21:18:55.673Z,99.90
2023-03-01T21:21:24.919Z,99.90
2023-03-01T21:23:53.169Z,99.90
2023-03-01T21:26:23.044Z,99.90
2023-03-01T21:28:54.717Z,99.90
2023-03-01T21:31:24.658Z,99.90
2023-03-01T21:33:56.113Z,99.90
2023-03-01T21:36:25.825Z,99.90
2023-03-01T21:38:54.957Z,99.90
2023-03-01T21:41:24.955Z,99.90
2023-03-01T21:43:54.973Z,99.90
2023-03-01T21:46:25.732Z,99.90
2023-03-01T21:48:56.297Z,99.90
2023-03-01T21:51:26.054Z,99.90
2023-03-01T21:53:56.171Z,99.90
2023-03-01T21:56:26.116Z,99.90
2023-03-01T21:58:55.316Z,99.90
2023-03-01T22:01:26.050Z,99.90
2023-03-01T22:03:56.037Z,99.90
2023-03-01T22:06:28.155Z,99.90
2023-03-01T22:08:59.280Z,99.90
2023-03-01T22:11:28.468Z,99.90
2023-03-01T22:13:57.655Z,99.90
2023-03-01T22:16:27.938Z,99.90
2023-03-01T22:18:58.693Z,99.90
2023-03-01T22:21:27.594Z,99.90
2023-03-01T22:23:57.195Z,99.90
2023-03-01T22:26:29.395Z,99.90
2023-03-01T22:29:00.909Z,99.90
2023-03-01T22:31:30.101Z,99.90
2023-03-01T22:34:02.100Z,99.90
2023-03-01T22:36:30.703Z,99.90
2023-03-01T22:39:01.938Z,99.90
2023-03-01T22:41:31.929Z,99.90
2023-03-01T22:44:00.185Z,99.90
2023-03-01T22:46:29.404Z,99.90
2023-03-01T22:48:57.923Z,99.90
2023-03-01T22:51:29.024Z,99.90
2023-03-01T22:53:57.378Z,99.90
2023-03-01T22:56:28.823Z,99.90
2023-03-01T22:58:58.155Z,99.90
2023-03-01T23:01:27.572Z,99.90
2023-03-01T23:03:56.476Z,99.90
2023-03-01T23:06:25.245Z,99.90
2023-03-01T23:08:56.576Z,99.90
2023-03-01T23:11:26.343Z,99.90
2023-03-01T23:13:55.353Z,99.90
2023-03-01T23:16:26.455Z,99.90
2023-03-01T23:18:56.013Z,99.90
2023-03-01T23:21:24.314Z,99.90
2023-03-01T23:23:55.064Z,99.90
2023-03-01T23:26:23.493Z,99.90
2023-03-01T23:28:51.903Z,99.90
2023-03-01T23:31:20.404Z,99.90
2023-03-01T23:33:49.323Z,99.90
2023-03-01T23:36:19.654Z,99.90
2023-03-01T23:38:49.025Z,99.90
2023-03-01T23:41:21.117Z,99.90
2023-03-01T23:43:50.830Z,99.90
2023-03-01T23:46:21.350Z,99.90
2023-03-01T23:48:50.288Z,99.90
2023-03-01T23:51:19.462Z,99.90
2023-03-01T23:53:54.814Z,99.90
2023-03-01T23:56:26.751Z,99.90
2023-03-01T23:58:55.970Z,99.90
